sensor_id;sensor_type;location;lat;lon;timestamp;pressure;altitude;pressure_sealevel;temperature;humidity
68807;BME280;55800;54.272;18.558;2024-02-21T00:01:16;101196.59;;;5.91;90.99
68807;BME280;55800;54.272;18.558;2024-02-21T00:03:46;101192.13;;;5.93;91.07
68807;BME280;55800;54.272;18.558;2024-02-21T00:06:17;101187.72;;;5.93;91.03
68807;BME280;55800;54.272;18.558;2024-02-21T00:08:46;101187.69;;;5.95;90.90
68807;BME280;55800;54.272;18.558;2024-02-21T00:11:16;101178.84;;;5.96;90.91
68807;BME280;55800;54.272;18.558;2024-02-21T00:13:46;101178.88;;;5.93;91.00
68807;BME280;55800;54.272;18.558;2024-02-21T00:16:15;101174.44;;;5.93;90.96
68807;BME280;55800;54.272;18.558;2024-02-21T00:18:45;101177.94;;;5.94;90.92
68807;BME280;55800;54.272;18.558;2024-02-21T00:21:16;101180.59;;;5.94;90.89
68807;BME280;55800;54.272;18.558;2024-02-21T00:23:46;101175.28;;;5.95;90.61
68807;BME280;55800;54.272;18.558;2024-02-21T00:26:19;101173.53;;;5.94;90.76
68807;BME280;55800;54.272;18.558;2024-02-21T00:28:48;101173.53;;;5.94;90.78
68807;BME280;55800;54.272;18.558;2024-02-21T00:31:18;101168.22;;;5.94;90.86
68807;BME280;55800;54.272;18.558;2024-02-21T00:33:47;101176.19;;;5.94;90.90
68807;BME280;55800;54.272;18.558;2024-02-21T00:36:18;101166.41;;;5.98;90.83
68807;BME280;55800;54.272;18.558;2024-02-21T00:38:48;101160.25;;;5.96;90.54
68807;BME280;55800;54.272;18.558;2024-02-21T00:41:17;101160.28;;;5.93;90.87
68807;BME280;55800;54.272;18.558;2024-02-21T00:43:47;101158.50;;;5.92;91.02
68807;BME280;55800;54.272;18.558;2024-02-21T00:46:18;101155.00;;;5.91;90.89
68807;BME280;55800;54.272;18.558;2024-02-21T00:48:48;101154.06;;;5.95;91.12
68807;BME280;55800;54.272;18.558;2024-02-21T00:51:19;101147.84;;;5.96;90.83
68807;BME280;55800;54.272;18.558;2024-02-21T00:53:49;101154.00;;;5.98;90.98
68807;BME280;55800;54.272;18.558;2024-02-21T00:56:19;101142.53;;;5.98;90.98
68807;BME280;55800;54.272;18.558;2024-02-21T00:58:48;101139.88;;;5.98;90.90
68807;BME280;55800;54.272;18.558;2024-02-21T01:01:22;101137.19;;;5.99;90.97
68807;BME280;55800;54.272;18.558;2024-02-21T01:03:52;101132.75;;;6.01;91.06
68807;BME280;55800;54.272;18.558;2024-02-21T01:06:23;101127.34;;;6.04;91.20
68807;BME280;55800;54.272;18.558;2024-02-21T01:08:53;101129.13;;;6.05;91.56
68807;BME280;55800;54.272;18.558;2024-02-21T01:11:22;101130.00;;;6.04;91.00
68807;BME280;55800;54.272;18.558;2024-02-21T01:13:51;101122.97;;;6.03;91.06
68807;BME280;55800;54.272;18.558;2024-02-21T01:16:21;101135.31;;;6.04;91.19
68807;BME280;55800;54.272;18.558;2024-02-21T01:18:51;101129.13;;;6.05;91.19
68807;BME280;55800;54.272;18.558;2024-02-21T01:21:22;101123.78;;;6.07;91.07
68807;BME280;55800;54.272;18.558;2024-02-21T01:23:52;101120.28;;;6.06;91.16
68807;BME280;55800;54.272;18.558;2024-02-21T01:26:21;101123.78;;;6.07;91.11
68807;BME280;55800;54.272;18.558;2024-02-21T01:28:51;101119.41;;;6.06;91.19
68807;BME280;55800;54.272;18.558;2024-02-21T01:31:21;101111.41;;;6.07;91.13
68807;BME280;55800;54.272;18.558;2024-02-21T01:33:50;101113.16;;;6.08;91.26
68807;BME280;55800;54.272;18.558;2024-02-21T01:36:21;101112.28;;;6.08;91.29
68807;BME280;55800;54.272;18.558;2024-02-21T01:38:51;101104.34;;;6.06;91.27
68807;BME280;55800;54.272;18.558;2024-02-21T01:41:21;101095.44;;;6.10;91.15
68807;BME280;55800;54.272;18.558;2024-02-21T01:43:50;101106.91;;;6.11;91.07
68807;BME280;55800;54.272;18.558;2024-02-21T01:46:20;101105.09;;;6.13;91.19
68807;BME280;55800;54.272;18.558;2024-02-21T01:48:50;101109.53;;;6.14;91.43
68807;BME280;55800;54.272;18.558;2024-02-21T01:51:19;101104.19;;;6.15;91.93
68807;BME280;55800;54.272;18.558;2024-02-21T01:53:51;101099.75;;;6.16;91.87
68807;BME280;55800;54.272;18.558;2024-02-21T01:56:23;101101.44;;;6.21;91.98
68807;BME280;55800;54.272;18.558;2024-02-21T01:58:53;101099.66;;;6.22;91.83
68807;BME280;55800;54.272;18.558;2024-02-21T02:01:24;101093.47;;;6.21;91.58
68807;BME280;55800;54.272;18.558;2024-02-21T02:03:54;101086.38;;;6.22;91.45
68807;BME280;55800;54.272;18.558;2024-02-21T02:06:25;101087.25;;;6.22;91.66
68807;BME280;55800;54.272;18.558;2024-02-21T02:08:56;101090.72;;;6.26;91.61
68807;BME280;55800;54.272;18.558;2024-02-21T02:11:26;101079.22;;;6.27;91.48
68807;BME280;55800;54.272;18.558;2024-02-21T02:13:56;101076.56;;;6.27;91.72
68807;BME280;55800;54.272;18.558;2024-02-21T02:16:26;101072.16;;;6.27;91.65
68807;BME280;55800;54.272;18.558;2024-02-21T02:18:55;101073.00;;;6.28;91.60
68807;BME280;55800;54.272;18.558;2024-02-21T02:21:29;101069.41;;;6.30;91.71
68807;BME280;55800;54.272;18.558;2024-02-21T02:24:00;101052.59;;;6.32;91.61
68807;BME280;55800;54.272;18.558;2024-02-21T02:26:30;101064.06;;;6.32;91.67
68807;BME280;55800;54.272;18.558;2024-02-21T02:29:01;101054.34;;;6.32;91.62
68807;BME280;55800;54.272;18.558;2024-02-21T02:31:31;101045.44;;;6.35;91.61
68807;BME280;55800;54.272;18.558;2024-02-21T02:34:00;101048.97;;;6.36;91.74
68807;BME280;55800;54.272;18.558;2024-02-21T02:36:31;101044.56;;;6.36;91.57
68807;BME280;55800;54.272;18.558;2024-02-21T02:39:02;101038.31;;;6.37;91.64
68807;BME280;55800;54.272;18.558;2024-02-21T02:41:34;101032.97;;;6.39;91.58
68807;BME280;55800;54.272;18.558;2024-02-21T02:44:04;101032.09;;;6.40;91.46
68807;BME280;55800;54.272;18.558;2024-02-21T02:46:34;101029.38;;;6.41;91.48
68807;BME280;55800;54.272;18.558;2024-02-21T02:49:03;101033.81;;;6.41;91.67
68807;BME280;55800;54.272;18.558;2024-02-21T02:51:33;101020.53;;;6.41;91.47
68807;BME280;55800;54.272;18.558;2024-02-21T02:54:04;101015.22;;;6.41;91.64
68807;BME280;55800;54.272;18.558;2024-02-21T02:56:34;101021.38;;;6.43;91.49
68807;BME280;55800;54.272;18.558;2024-02-21T02:59:03;101019.63;;;6.43;91.61
68807;BME280;55800;54.272;18.558;2024-02-21T03:01:33;101009.03;;;6.42;91.49
68807;BME280;55800;54.272;18.558;2024-02-21T03:04:03;101010.75;;;6.43;91.88
68807;BME280;55800;54.272;18.558;2024-02-21T03:06:33;101003.69;;;6.45;91.89
68807;BME280;55800;54.272;18.558;2024-02-21T03:09:04;101008.97;;;6.45;91.89
68807;BME280;55800;54.272;18.558;2024-02-21T03:11:37;101007.22;;;6.44;91.50
68807;BME280;55800;54.272;18.558;2024-02-21T03:14:09;101009.88;;;6.44;91.57
68807;BME280;55800;54.272;18.558;2024-02-21T03:16:39;101011.63;;;6.45;91.57
68807;BME280;55800;54.272;18.558;2024-02-21T03:19:08;101009.84;;;6.47;91.83
68807;BME280;55800;54.272;18.558;2024-02-21T03:21:38;101005.38;;;6.49;91.94
68807;BME280;55800;54.272;18.558;2024-02-21T03:24:09;100999.16;;;6.48;91.90
68807;BME280;55800;54.272;18.558;2024-02-21T03:26:39;101001.78;;;6.50;92.24
68807;BME280;55800;54.272;18.558;2024-02-21T03:29:08;100988.50;;;6.50;92.30
68807;BME280;55800;54.272;18.558;2024-02-21T03:31:38;100995.53;;;6.52;92.25
68807;BME280;55800;54.272;18.558;2024-02-21T03:34:07;100996.44;;;6.51;92.14
68807;BME280;55800;54.272;18.558;2024-02-21T03:36:38;100991.03;;;6.56;92.23
68807;BME280;55800;54.272;18.558;2024-02-21T03:39:08;100991.88;;;6.58;92.52
68807;BME280;55800;54.272;18.558;2024-02-21T03:41:38;100985.69;;;6.59;92.71
68807;BME280;55800;54.272;18.558;2024-02-21T03:44:08;100986.56;;;6.59;92.59
68807;BME280;55800;54.272;18.558;2024-02-21T03:46:38;100990.91;;;6.62;92.59
68807;BME280;55800;54.272;18.558;2024-02-21T03:49:07;100984.75;;;6.60;92.18
68807;BME280;55800;54.272;18.558;2024-02-21T03:51:37;100982.06;;;6.63;92.24
68807;BME280;55800;54.272;18.558;2024-02-21T03:54:06;100979.41;;;6.63;92.44
68807;BME280;55800;54.272;18.558;2024-02-21T03:56:39;100980.28;;;6.63;92.17
68807;BME280;55800;54.272;18.558;2024-02-21T03:59:09;100975.75;;;6.67;92.59
68807;BME280;55800;54.272;18.558;2024-02-21T04:01:38;100974.88;;;6.68;92.60
68807;BME280;55800;54.272;18.558;2024-02-21T04:04:09;100967.75;;;6.68;92.49
68807;BME280;55800;54.272;18.558;2024-02-21T04:06:46;100971.25;;;6.70;92.64
68807;BME280;55800;54.272;18.558;2024-02-21T04:09:16;100965.13;;;6.67;92.86
68807;BME280;55800;54.272;18.558;2024-02-21T04:11:47;100960.75;;;6.64;92.30
68807;BME280;55800;54.272;18.558;2024-02-21T04:14:16;100960.75;;;6.64;92.59
68807;BME280;55800;54.272;18.558;2024-02-21T04:16:46;100960.78;;;6.63;92.70
68807;BME280;55800;54.272;18.558;2024-02-21T04:19:15;100954.56;;;6.64;92.98
68807;BME280;55800;54.272;18.558;2024-02-21T04:21:45;100956.31;;;6.65;92.91
68807;BME280;55800;54.272;18.558;2024-02-21T04:24:14;100958.09;;;6.66;93.02
68807;BME280;55800;54.272;18.558;2024-02-21T04:26:44;100948.31;;;6.66;93.19
68807;BME280;55800;54.272;18.558;2024-02-21T04:29:15;100949.25;;;6.65;92.66
68807;BME280;55800;54.272;18.558;2024-02-21T04:31:45;100944.81;;;6.66;92.71
68807;BME280;55800;54.272;18.558;2024-02-21T04:34:14;100945.66;;;6.66;92.84
68807;BME280;55800;54.272;18.558;2024-02-21T04:36:44;100945.66;;;6.68;92.77
68807;BME280;55800;54.272;18.558;2024-02-21T04:39:14;100941.09;;;6.73;92.94
68807;BME280;55800;54.272;18.558;2024-02-21T04:41:43;100934.06;;;6.72;92.92
68807;BME280;55800;54.272;18.558;2024-02-21T04:44:14;100934.94;;;6.71;92.70
68807;BME280;55800;54.272;18.558;2024-02-21T04:46:44;100923.44;;;6.70;92.71
68807;BME280;55800;54.272;18.558;2024-02-21T04:49:13;100913.75;;;6.68;92.72
68807;BME280;55800;54.272;18.558;2024-02-21T04:51:43;100926.09;;;6.70;92.70
68807;BME280;55800;54.272;18.558;2024-02-21T04:54:12;100913.69;;;6.71;92.78
68807;BME280;55800;54.272;18.558;2024-02-21T04:56:42;100910.06;;;6.75;92.71
68807;BME280;55800;54.272;18.558;2024-02-21T04:59:11;100907.41;;;6.75;92.48
68807;BME280;55800;54.272;18.558;2024-02-21T05:01:42;100909.19;;;6.74;93.34
68807;BME280;55800;54.272;18.558;2024-02-21T05:04:11;100903.88;;;6.74;92.79
68807;BME280;55800;54.272;18.558;2024-02-21T05:06:42;100902.91;;;6.77;92.96
68807;BME280;55800;54.272;18.558;2024-02-21T05:09:11;100895.78;;;6.79;93.25
68807;BME280;55800;54.272;18.558;2024-02-21T05:11:41;100891.41;;;6.78;92.83
68807;BME280;55800;54.272;18.558;2024-02-21T05:14:10;100889.69;;;6.75;92.75
68807;BME280;55800;54.272;18.558;2024-02-21T05:16:41;100884.31;;;6.77;92.71
68807;BME280;55800;54.272;18.558;2024-02-21T05:19:10;100877.22;;;6.77;93.05
68807;BME280;55800;54.272;18.558;2024-02-21T05:21:40;100882.50;;;6.80;93.01
68807;BME280;55800;54.272;18.558;2024-02-21T05:24:09;100885.16;;;6.79;92.92
68807;BME280;55800;54.272;18.558;2024-02-21T05:26:39;100880.72;;;6.79;93.27
68807;BME280;55800;54.272;18.558;2024-02-21T05:29:08;100879.78;;;6.82;92.83
68807;BME280;55800;54.272;18.558;2024-02-21T05:31:55;100876.28;;;6.80;92.87
68807;BME280;55800;54.272;18.558;2024-02-21T05:34:26;100866.59;;;6.77;92.83
68807;BME280;55800;54.272;18.558;2024-02-21T05:36:56;100859.50;;;6.78;93.27
68807;BME280;55800;54.272;18.558;2024-02-21T05:39:27;100865.66;;;6.80;93.36
68807;BME280;55800;54.272;18.558;2024-02-21T05:41:57;100858.59;;;6.79;92.84
68807;BME280;55800;54.272;18.558;2024-02-21T05:44:27;100867.41;;;6.81;93.04
68807;BME280;55800;54.272;18.558;2024-02-21T05:46:58;100849.72;;;6.80;93.12
68807;BME280;55800;54.272;18.558;2024-02-21T05:49:27;100846.22;;;6.78;92.93
68807;BME280;55800;54.272;18.558;2024-02-21T05:51:57;100852.34;;;6.81;92.96
68807;BME280;55800;54.272;18.558;2024-02-21T05:54:26;100844.31;;;6.83;93.08
68807;BME280;55800;54.272;18.558;2024-02-21T05:56:56;100851.41;;;6.84;93.02
68807;BME280;55800;54.272;18.558;2024-02-21T05:59:25;100840.81;;;6.81;92.93
68807;BME280;55800;54.272;18.558;2024-02-21T06:01:56;100841.69;;;6.81;93.08
68807;BME280;55800;54.272;18.558;2024-02-21T06:04:26;100841.75;;;6.80;93.55
68807;BME280;55800;54.272;18.558;2024-02-21T06:06:56;100831.91;;;6.85;93.43
68807;BME280;55800;54.272;18.558;2024-02-21T06:09:26;100838.91;;;6.87;93.30
68807;BME280;55800;54.272;18.558;2024-02-21T06:11:55;100830.06;;;6.87;93.25
68807;BME280;55800;54.272;18.558;2024-02-21T06:14:24;100825.59;;;6.87;93.50
68807;BME280;55800;54.272;18.558;2024-02-21T06:16:54;100824.72;;;6.88;93.10
68807;BME280;55800;54.272;18.558;2024-02-21T06:19:25;100818.56;;;6.86;93.15
68807;BME280;55800;54.272;18.558;2024-02-21T06:21:54;100822.81;;;6.93;93.44
68807;BME280;55800;54.272;18.558;2024-02-21T06:24:24;100808.66;;;6.93;93.49
68807;BME280;55800;54.272;18.558;2024-02-21T06:26:53;100808.66;;;6.93;93.33
68807;BME280;55800;54.272;18.558;2024-02-21T06:29:23;100813.06;;;6.94;93.11
68807;BME280;55800;54.272;18.558;2024-02-21T06:31:52;100795.38;;;6.91;93.19
68807;BME280;55800;54.272;18.558;2024-02-21T06:34:21;100805.03;;;6.97;93.19
68807;BME280;55800;54.272;18.558;2024-02-21T06:36:53;100805.97;;;6.94;93.19
68807;BME280;55800;54.272;18.558;2024-02-21T06:39:22;100803.34;;;6.93;93.48
68807;BME280;55800;54.272;18.558;2024-02-21T06:41:52;100799.75;;;6.94;93.36
68807;BME280;55800;54.272;18.558;2024-02-21T06:44:23;100801.38;;;7.01;93.51
68807;BME280;55800;54.272;18.558;2024-02-21T06:46:53;100814.63;;;7.02;93.64
68807;BME280;55800;54.272;18.558;2024-02-21T06:49:23;100815.50;;;7.03;93.68
68807;BME280;55800;54.272;18.558;2024-02-21T06:51:54;100808.34;;;7.05;93.37
68807;BME280;55800;54.272;18.558;2024-02-21T06:54:23;100811.84;;;7.07;93.51
68807;BME280;55800;54.272;18.558;2024-02-21T06:56:53;100809.13;;;7.10;93.71
68807;BME280;55800;54.272;18.558;2024-02-21T06:59:22;100806.47;;;7.10;93.39
68807;BME280;55800;54.272;18.558;2024-02-21T07:01:54;100800.19;;;7.13;93.52
68807;BME280;55800;54.272;18.558;2024-02-21T07:04:24;100809.97;;;7.12;93.57
68807;BME280;55800;54.272;18.558;2024-02-21T07:06:56;100806.38;;;7.13;93.77
68807;BME280;55800;54.272;18.558;2024-02-21T07:09:26;100802.66;;;7.20;93.68
68807;BME280;55800;54.272;18.558;2024-02-21T07:11:56;100799.97;;;7.22;93.74
68807;BME280;55800;54.272;18.558;2024-02-21T07:14:27;100787.69;;;7.16;93.58
68807;BME280;55800;54.272;18.558;2024-02-21T07:16:56;100785.03;;;7.16;93.75
68807;BME280;55800;54.272;18.558;2024-02-21T07:19:26;100786.78;;;7.17;93.83
68807;BME280;55800;54.272;18.558;2024-02-21T07:21:57;100781.44;;;7.19;93.75
68807;BME280;55800;54.272;18.558;2024-02-21T07:24:27;100776.97;;;7.19;94.07
68807;BME280;55800;54.272;18.558;2024-02-21T07:26:56;100779.63;;;7.19;93.63
68807;BME280;55800;54.272;18.558;2024-02-21T07:29:26;100789.41;;;7.19;93.84
68807;BME280;55800;54.272;18.558;2024-02-21T07:31:55;100784.94;;;7.19;93.87
68807;BME280;55800;54.272;18.558;2024-02-21T07:34:25;100782.09;;;7.27;93.90
68807;BME280;55800;54.272;18.558;2024-02-21T07:36:55;100783.81;;;7.29;93.67
68807;BME280;55800;54.272;18.558;2024-02-21T07:39:26;100783.00;;;7.26;93.94
68807;BME280;55800;54.272;18.558;2024-02-21T07:41:55;100781.16;;;7.29;94.00
68807;BME280;55800;54.272;18.558;2024-02-21T07:44:25;100767.88;;;7.28;93.90
68807;BME280;55800;54.272;18.558;2024-02-21T07:46:54;100767.03;;;7.27;93.95
68807;BME280;55800;54.272;18.558;2024-02-21T07:49:24;100766.94;;;7.30;94.02
68807;BME280;55800;54.272;18.558;2024-02-21T07:51:53;100752.03;;;7.25;93.62
68807;BME280;55800;54.272;18.558;2024-02-21T07:54:24;100748.44;;;7.26;94.08
68807;BME280;55800;54.272;18.558;2024-02-21T07:56:55;100749.31;;;7.26;93.88
68807;BME280;55800;54.272;18.558;2024-02-21T07:59:25;100744.75;;;7.31;93.95
68807;BME280;55800;54.272;18.558;2024-02-21T08:01:56;100733.25;;;7.31;94.01
68807;BME280;55800;54.272;18.558;2024-02-21T08:04:27;100727.88;;;7.32;93.86
68807;BME280;55800;54.272;18.558;2024-02-21T08:06:56;100725.09;;;7.37;93.88
68807;BME280;55800;54.272;18.558;2024-02-21T08:09:31;100718.81;;;7.39;94.01
68807;BME280;55800;54.272;18.558;2024-02-21T08:12:00;100714.34;;;7.41;94.30
68807;BME280;55800;54.272;18.558;2024-02-21T08:14:30;100716.13;;;7.41;94.00
68807;BME280;55800;54.272;18.558;2024-02-21T08:16:59;100711.72;;;7.40;94.16
68807;BME280;55800;54.272;18.558;2024-02-21T08:19:29;100708.09;;;7.42;94.29
68807;BME280;55800;54.272;18.558;2024-02-21T08:21:59;100700.97;;;7.44;94.37
68807;BME280;55800;54.272;18.558;2024-02-21T08:24:30;100707.88;;;7.50;94.42
68807;BME280;55800;54.272;18.558;2024-02-21T08:26:59;100702.53;;;7.51;94.30
68807;BME280;55800;54.272;18.558;2024-02-21T08:29:29;100704.28;;;7.52;94.46
68807;BME280;55800;54.272;18.558;2024-02-21T08:31:59;100697.16;;;7.53;94.24
68807;BME280;55800;54.272;18.558;2024-02-21T08:34:28;100698.84;;;7.55;94.29
68807;BME280;55800;54.272;18.558;2024-02-21T08:37:02;100696.19;;;7.57;94.00
68807;BME280;55800;54.272;18.558;2024-02-21T08:39:33;100694.34;;;7.59;94.35
68807;BME280;55800;54.272;18.558;2024-02-21T08:42:03;100691.63;;;7.60;94.37
68807;BME280;55800;54.272;18.558;2024-02-21T08:44:32;100678.25;;;7.62;94.14
68807;BME280;55800;54.272;18.558;2024-02-21T08:47:02;100684.47;;;7.62;94.19
68807;BME280;55800;54.272;18.558;2024-02-21T08:49:33;100672.88;;;7.65;94.31
68807;BME280;55800;54.272;18.558;2024-02-21T08:52:03;100678.13;;;7.66;94.16
68807;BME280;55800;54.272;18.558;2024-02-21T08:54:34;100672.03;;;7.63;94.14
68807;BME280;55800;54.272;18.558;2024-02-21T08:57:04;100669.34;;;7.64;94.20
68807;BME280;55800;54.272;18.558;2024-02-21T08:59:34;100671.91;;;7.67;94.51
68807;BME280;55800;54.272;18.558;2024-02-21T09:02:03;100664.84;;;7.66;94.31
68807;BME280;55800;54.272;18.558;2024-02-21T09:04:35;100663.88;;;7.69;94.41
68807;BME280;55800;54.272;18.558;2024-02-21T09:07:04;100669.16;;;7.70;94.39
68807;BME280;55800;54.272;18.558;2024-02-21T09:09:35;100660.16;;;7.74;94.40
68807;BME280;55800;54.272;18.558;2024-02-21T09:12:07;100662.75;;;7.77;94.06
68807;BME280;55800;54.272;18.558;2024-02-21T09:14:38;100659.97;;;7.80;94.05
68807;BME280;55800;54.272;18.558;2024-02-21T09:17:07;100668.88;;;7.79;94.09
68807;BME280;55800;54.272;18.558;2024-02-21T09:19:37;100659.13;;;7.78;94.32
68807;BME280;55800;54.272;18.558;2024-02-21T09:22:06;100670.47;;;7.85;94.08
68807;BME280;55800;54.272;18.558;2024-02-21T09:24:37;100674.97;;;7.83;94.03
68807;BME280;55800;54.272;18.558;2024-02-21T09:27:06;100677.75;;;7.80;94.52
68807;BME280;55800;54.272;18.558;2024-02-21T09:29:36;100664.47;;;7.78;94.32
68807;BME280;55800;54.272;18.558;2024-02-21T09:32:07;100668.88;;;7.79;94.65
68807;BME280;55800;54.272;18.558;2024-02-21T09:34:37;100646.63;;;7.82;94.78
68807;BME280;55800;54.272;18.558;2024-02-21T09:37:08;100652.78;;;7.84;94.81
68807;BME280;55800;54.272;18.558;2024-02-21T09:39:39;100648.38;;;7.83;94.73
68807;BME280;55800;54.272;18.558;2024-02-21T09:42:11;100647.31;;;7.88;94.86
68807;BME280;55800;54.272;18.558;2024-02-21T09:44:41;100638.41;;;7.89;94.88
68807;BME280;55800;54.272;18.558;2024-02-21T09:47:19;100640.97;;;7.93;94.81
68807;BME280;55800;54.272;18.558;2024-02-21T09:49:52;100642.63;;;7.97;94.81
68807;BME280;55800;54.272;18.558;2024-02-21T09:52:21;100640.88;;;7.96;94.91
68807;BME280;55800;54.272;18.558;2024-02-21T09:54:54;100634.66;;;7.97;94.95
68807;BME280;55800;54.272;18.558;2024-02-21T09:57:25;100629.06;;;8.04;95.21
68807;BME280;55800;54.272;18.558;2024-02-21T09:59:56;100610.28;;;8.09;95.29
68807;BME280;55800;54.272;18.558;2024-02-21T10:02:27;100625.25;;;8.13;94.94
68807;BME280;55800;54.272;18.558;2024-02-21T10:04:57;100629.47;;;8.20;95.26
68807;BME280;55800;54.272;18.558;2024-02-21T10:07:26;100629.38;;;8.23;95.30
68807;BME280;55800;54.272;18.558;2024-02-21T10:10:01;100626.53;;;8.29;95.29
68807;BME280;55800;54.272;18.558;2024-02-21T10:12:31;100621.16;;;8.30;94.94
68807;BME280;55800;54.272;18.558;2024-02-21T10:15:01;100623.69;;;8.35;95.06
68807;BME280;55800;54.272;18.558;2024-02-21T10:17:30;100615.56;;;8.38;95.36
68807;BME280;55800;54.272;18.558;2024-02-21T10:20:07;100601.13;;;8.45;95.56
68807;BME280;55800;54.272;18.558;2024-02-21T10:22:38;100599.06;;;8.53;95.74
68807;BME280;55800;54.272;18.558;2024-02-21T10:25:10;100603.19;;;8.63;95.96
68807;BME280;55800;54.272;18.558;2024-02-21T10:27:40;100596.72;;;8.70;95.85
68807;BME280;55800;54.272;18.558;2024-02-21T10:30:14;100598.25;;;8.77;95.95
68807;BME280;55800;54.272;18.558;2024-02-21T10:32:51;100593.50;;;8.85;95.83
68807;BME280;55800;54.272;18.558;2024-02-21T10:35:28;100593.19;;;8.94;95.97
68807;BME280;55800;54.272;18.558;2024-02-21T10:37:59;100590.25;;;9.02;95.74
68807;BME280;55800;54.272;18.558;2024-02-21T10:40:31;100591.72;;;9.10;95.50
68807;BME280;55800;54.272;18.558;2024-02-21T10:43:01;100587.09;;;9.15;95.59
68807;BME280;55800;54.272;18.558;2024-02-21T10:45:34;100583.31;;;9.21;95.16
68807;BME280;55800;54.272;18.558;2024-02-21T10:48:12;100582.50;;;9.19;94.47
68807;BME280;55800;54.272;18.558;2024-02-21T10:50:52;100586.03;;;9.19;94.00
68807;BME280;55800;54.272;18.558;2024-02-21T10:53:29;100581.47;;;9.23;94.47
68807;BME280;55800;54.272;18.558;2024-02-21T10:56:11;100581.44;;;9.24;94.38
68807;BME280;55800;54.272;18.558;2024-02-21T10:58:43;100578.75;;;9.24;93.43
68807;BME280;55800;54.272;18.558;2024-02-21T11:01:14;100562.94;;;9.18;93.05
68807;BME280;55800;54.272;18.558;2024-02-21T11:03:47;100571.09;;;9.15;93.66
68807;BME280;55800;54.272;18.558;2024-02-21T11:06:18;100565.63;;;9.18;93.94
68807;BME280;55800;54.272;18.558;2024-02-21T11:09:00;100572.72;;;9.19;93.77
68807;BME280;55800;54.272;18.558;2024-02-21T11:11:33;100570.94;;;9.18;94.11
68807;BME280;55800;54.272;18.558;2024-02-21T11:14:08;100563.66;;;9.23;93.48
68807;BME280;55800;54.272;18.558;2024-02-21T11:16:39;100561.00;;;9.23;93.36
68807;BME280;55800;54.272;18.558;2024-02-21T11:19:09;100552.94;;;9.25;93.77
68807;BME280;55800;54.272;18.558;2024-02-21T11:21:39;100554.75;;;9.24;93.43
68807;BME280;55800;54.272;18.558;2024-02-21T11:24:09;100540.47;;;9.25;93.14
68807;BME280;55800;54.272;18.558;2024-02-21T11:26:40;100535.13;;;9.25;93.21
68807;BME280;55800;54.272;18.558;2024-02-21T11:29:11;100532.53;;;9.24;93.69
68807;BME280;55800;54.272;18.558;2024-02-21T11:31:42;100530.53;;;9.29;93.36
68807;BME280;55800;54.272;18.558;2024-02-21T11:34:12;100533.28;;;9.27;93.09
68807;BME280;55800;54.272;18.558;2024-02-21T11:36:52;100545.94;;;9.22;93.14
68807;BME280;55800;54.272;18.558;2024-02-21T11:39:24;100540.59;;;9.22;93.33
68807;BME280;55800;54.272;18.558;2024-02-21T11:42:06;100527.25;;;9.22;93.31
68807;BME280;55800;54.272;18.558;2024-02-21T11:44:37;100522.78;;;9.23;93.54
68807;BME280;55800;54.272;18.558;2024-02-21T11:47:08;100528.91;;;9.25;92.88
68807;BME280;55800;54.272;18.558;2024-02-21T11:49:38;100517.50;;;9.21;93.06
68807;BME280;55800;54.272;18.558;2024-02-21T11:52:08;100514.91;;;9.20;93.46
68807;BME280;55800;54.272;18.558;2024-02-21T11:54:38;100506.84;;;9.21;93.73
68807;BME280;55800;54.272;18.558;2024-02-21T11:57:09;100514.03;;;9.19;93.82
68807;BME280;55800;54.272;18.558;2024-02-21T11:59:40;100516.75;;;9.18;94.08
68807;BME280;55800;54.272;18.558;2024-02-21T12:02:11;100514.19;;;9.15;94.40
68807;BME280;55800;54.272;18.558;2024-02-21T12:04:41;100525.75;;;9.15;94.42
68807;BME280;55800;54.272;18.558;2024-02-21T12:07:11;100514.25;;;9.13;94.63
68807;BME280;55800;54.272;18.558;2024-02-21T12:09:42;100510.56;;;9.17;94.62
68807;BME280;55800;54.272;18.558;2024-02-21T12:12:14;100508.78;;;9.16;94.73
68807;BME280;55800;54.272;18.558;2024-02-21T12:14:55;100507.94;;;9.16;94.91
68807;BME280;55800;54.272;18.558;2024-02-21T12:17:25;100508.78;;;9.16;94.96
68807;BME280;55800;54.272;18.558;2024-02-21T12:19:54;100497.97;;;9.21;94.89
68807;BME280;55800;54.272;18.558;2024-02-21T12:22:24;100497.78;;;9.25;95.11
68807;BME280;55800;54.272;18.558;2024-02-21T12:24:54;100498.66;;;9.26;95.02
68807;BME280;55800;54.272;18.558;2024-02-21T12:27:25;100494.06;;;9.29;95.23
68807;BME280;55800;54.272;18.558;2024-02-21T12:29:54;100490.34;;;9.33;94.99
68807;BME280;55800;54.272;18.558;2024-02-21T12:32:23;100487.75;;;9.32;94.89
68807;BME280;55800;54.272;18.558;2024-02-21T12:34:53;100479.69;;;9.33;95.13
68807;BME280;55800;54.272;18.558;2024-02-21T12:37:23;100481.44;;;9.34;95.31
68807;BME280;55800;54.272;18.558;2024-02-21T12:39:53;100477.16;;;9.30;94.77
68807;BME280;55800;54.272;18.558;2024-02-21T12:42:22;100457.53;;;9.31;93.74
68807;BME280;55800;54.272;18.558;2024-02-21T12:45:16;100464.88;;;9.26;91.18
68807;BME280;55800;54.272;18.558;2024-02-21T12:47:45;100456.47;;;9.14;90.13
68807;BME280;55800;54.272;18.558;2024-02-21T12:50:15;100455.94;;;9.04;89.74
68807;BME280;55800;54.272;18.558;2024-02-21T12:52:44;100447.22;;;8.99;89.94
68807;BME280;55800;54.272;18.558;2024-02-21T12:55:14;100461.50;;;8.98;91.10
68807;BME280;55800;54.272;18.558;2024-02-21T12:57:45;100445.75;;;8.92;90.92
68807;BME280;55800;54.272;18.558;2024-02-21T13:00:16;100438.91;;;8.85;90.00
68807;BME280;55800;54.272;18.558;2024-02-21T13:02:46;100440.84;;;8.80;90.18
68807;BME280;55800;54.272;18.558;2024-02-21T13:05:16;100446.31;;;8.77;90.19
68807;BME280;55800;54.272;18.558;2024-02-21T13:07:46;100427.59;;;8.79;90.58